Time;durP1;ratioP1;P1;durP2;ratioP2;P2;SDS_P1;SDS_P2;PMS_P1;PMS_P2;Temp;Humidity;BMP_temperature;BMP_pressure;BME280_temperature;BME280_humidity;BME280_pressure;Samples;Min_cycle;Max_cycle;Signal;HPM_P1;HPM_P2
2023/03/28 00:02:14;;;;;;;21.05;4.47;;;1.50;99.90;;;;;;6243670;22;20047;-78
2023/03/28 00:04:40;;;;;;;16.85;3.67;;;1.50;99.90;;;;;;6267397;22;20011;-79
2023/03/28 00:07:06;;;;;;;18.02;4.05;;;1.50;99.90;;;;;;6247240;22;20039;-79
2023/03/28 00:09:36;;;;;;;17.52;3.47;;;1.40;99.90;;;;;;6274095;22;20054;-79
2023/03/28 00:12:02;;;;;;;16.13;3.13;;;1.40;99.90;;;;;;6246731;22;20020;-79
2023/03/28 00:14:28;;;;;;;18.27;4.72;;;1.30;99.90;;;;;;6273934;22;20020;-79
2023/03/28 00:16:53;;;;;;;17.67;3.70;;;1.30;99.90;;;;;;6221532;22;20094;-79
2023/03/28 00:19:19;;;;;;;13.05;3.35;;;1.30;99.90;;;;;;6274092;22;20018;-79
2023/03/28 00:21:47;;;;;;;21.38;3.28;;;1.20;99.90;;;;;;6274384;22;20018;-79
2023/03/28 00:24:15;;;;;;;15.63;3.63;;;1.20;99.90;;;;;;6220509;22;20428;-79
2023/03/28 00:26:48;;;;;;;16.10;3.75;;;1.20;99.90;;;;;;6246983;22;20012;-79
2023/03/28 00:29:19;;;;;;;20.23;3.50;;;1.20;99.90;;;;;;6247142;22;20020;-79
2023/03/28 00:31:45;;;;;;;19.48;3.85;;;1.10;99.90;;;;;;6221590;22;20008;-79
2023/03/28 00:34:11;;;;;;;16.88;3.33;;;1.10;99.90;;;;;;6247156;22;20019;-79
2023/03/28 00:36:38;;;;;;;22.55;4.07;;;1.10;99.90;;;;;;6274211;22;20064;-79
2023/03/28 00:39:09;;;;;;;16.55;3.63;;;1.10;99.90;;;;;;6246184;22;20427;-78
2023/03/28 00:41:38;;;;;;;13.27;3.35;;;1.00;99.90;;;;;;6274462;22;20007;-78
2023/03/28 00:44:38;;;;;;;18.30;3.50;;;1.00;99.90;;;;;;6221751;22;20036;-79
2023/03/28 00:47:07;;;;;;;18.13;3.75;;;1.00;99.90;;;;;;6274707;22;20041;-79
2023/03/28 00:49:33;;;;;;;17.70;3.72;;;1.00;99.90;;;;;;6247220;22;20263;-79
2023/03/28 00:52:03;;;;;;;14.63;3.28;;;1.00;99.90;;;;;;6247094;22;20069;-79
2023/03/28 00:54:33;;;;;;;18.83;3.35;;;0.90;99.90;;;;;;6246560;22;20042;-78
2023/03/28 00:57:01;;;;;;;21.23;3.97;;;0.90;99.90;;;;;;6252195;22;20016;-78
2023/03/28 00:59:31;;;;;;;18.73;3.67;;;0.90;99.90;;;;;;6282567;22;20019;-79
2023/03/28 01:01:57;;;;;;;19.92;3.90;;;0.80;99.90;;;;;;6229605;22;20040;-78
2023/03/28 01:04:26;;;;;;;14.10;3.38;;;0.80;99.90;;;;;;6254475;22;20039;-79
2023/03/28 01:06:55;;;;;;;20.33;3.63;;;0.80;99.90;;;;;;6248684;22;20020;-79
2023/03/28 01:09:22;;;;;;;15.25;3.58;;;0.80;99.90;;;;;;6248151;22;20023;-79
2023/03/28 01:11:49;;;;;;;16.90;2.90;;;0.80;99.90;;;;;;6248599;22;20069;-78
2023/03/28 01:14:19;;;;;;;16.48;4.03;;;0.80;99.90;;;;;;6223340;22;20008;-78
2023/03/28 01:16:46;;;;;;;19.50;4.25;;;0.80;99.90;;;;;;6248566;22;20022;-79
2023/03/28 01:19:28;;;;;;;14.32;3.75;;;0.80;99.90;;;;;;6249636;22;20094;-78
2023/03/28 01:22:15;;;;;;;19.52;4.35;;;0.80;99.90;;;;;;6248365;22;20015;-79
2023/03/28 01:25:20;;;;;;;16.55;3.72;;;0.80;99.90;;;;;;6248419;22;20024;-78
2023/03/28 01:28:15;;;;;;;18.48;4.90;;;0.80;99.90;;;;;;6248704;22;20442;-79
2023/03/28 01:30:55;;;;;;;18.55;3.67;;;0.80;99.90;;;;;;6221108;22;20038;-78
2023/03/28 01:33:54;;;;;;;18.77;3.30;;;0.80;99.90;;;;;;6223054;22;20011;-78
2023/03/28 01:36:41;;;;;;;23.00;4.28;;;0.60;99.90;;;;;;6248457;22;20016;-79
2023/03/28 01:39:31;;;;;;;20.55;4.07;;;0.70;99.90;;;;;;6248714;22;20016;-78
2023/03/28 01:42:03;;;;;;;20.42;4.05;;;1.80;99.90;;;;;;6248443;22;20043;-78
2023/03/28 01:44:49;;;;;;;23.33;4.18;;;0.70;99.90;;;;;;6275103;22;20020;-79
2023/03/28 01:47:32;;;;;;;20.60;4.25;;;0.60;99.90;;;;;;6275954;22;20091;-79
2023/03/28 01:50:07;;;;;;;19.83;3.60;;;0.60;99.90;;;;;;6248345;22;20112;-78
2023/03/28 01:52:54;;;;;;;18.98;3.78;;;0.60;99.90;;;;;;6274711;22;20050;-78
2023/03/28 01:55:26;;;;;;;20.33;4.53;;;0.60;99.90;;;;;;6222680;22;20027;-79
2023/03/28 01:58:02;;;;;;;21.30;4.55;;;0.50;99.90;;;;;;6222724;22;20016;-79
2023/03/28 02:00:42;;;;;;;12.88;3.45;;;0.50;99.90;;;;;;6247911;22;20067;-79
2023/03/28 02:03:30;;;;;;;14.55;3.22;;;0.50;99.90;;;;;;6247759;22;20019;-78
2023/03/28 02:05:57;;;;;;;18.27;3.55;;;0.40;99.90;;;;;;6247346;22;20015;-78
2023/03/28 02:08:28;;;;;;;15.80;4.18;;;0.40;99.90;;;;;;6275529;22;20308;-78
2023/03/28 02:10:55;;;;;;;17.40;3.55;;;0.40;99.90;;;;;;6247806;22;20039;-78
2023/03/28 02:13:29;;;;;;;18.98;3.67;;;0.30;99.90;;;;;;6247570;22;20012;-78
2023/03/28 02:15:57;;;;;;;20.40;3.42;;;0.30;99.90;;;;;;6247840;22;20019;-79
2023/03/28 02:18:35;;;;;;;22.88;3.63;;;0.30;99.90;;;;;;6247972;22;20011;-78
2023/03/28 02:21:07;;;;;;;20.20;4.70;;;0.30;99.90;;;;;;6222297;22;20018;-79
2023/03/28 02:23:39;;;;;;;19.08;3.92;;;0.30;99.90;;;;;;6247908;22;20019;-78
2023/03/28 02:26:05;;;;;;;18.75;4.10;;;0.30;99.90;;;;;;6275394;22;20039;-78
2023/03/28 02:28:35;;;;;;;22.92;4.30;;;0.30;99.90;;;;;;6248895;22;20008;-78
2023/03/28 02:31:02;;;;;;;15.38;4.28;;;0.30;99.90;;;;;;6275307;22;20061;-79
2023/03/28 02:33:43;;;;;;;12.18;3.40;;;0.30;99.90;;;;;;6247933;22;20311;-79
2023/03/28 02:36:15;;;;;;;23.67;4.20;;;0.30;99.90;;;;;;6247063;22;20042;-79
2023/03/28 02:39:15;;;;;;;25.42;4.90;;;0.30;99.90;;;;;;6222441;22;20015;-78
2023/03/28 02:42:22;;;;;;;17.05;3.83;;;0.30;99.90;;;;;;6220714;22;20015;-78
2023/03/28 02:45:27;;;;;;;16.80;3.95;;;0.30;99.90;;;;;;6247584;22;20494;-78
2023/03/28 02:48:11;;;;;;;22.77;3.90;;;0.30;99.90;;;;;;6245621;22;20412;-79
2023/03/28 02:50:52;;;;;;;19.92;4.30;;;0.30;99.90;;;;;;6246826;22;20010;-79
2023/03/28 02:53:31;;;;;;;20.90;3.85;;;0.30;99.90;;;;;;6274802;22;20022;-80
2023/03/28 02:56:08;;;;;;;19.65;4.15;;;0.30;99.90;;;;;;6275082;22;20050;-79
2023/03/28 02:58:55;;;;;;;18.42;4.30;;;0.30;99.90;;;;;;6248058;22;20011;-79
2023/03/28 03:01:28;;;;;;;15.75;3.70;;;0.20;99.90;;;;;;6222248;22;20318;-78
2023/03/28 03:03:54;;;;;;;16.98;4.15;;;0.20;99.90;;;;;;6246623;22;20283;-78
2023/03/28 03:06:20;;;;;;;17.63;4.00;;;0.20;99.90;;;;;;6247456;22;20045;-78
2023/03/28 03:08:45;;;;;;;13.48;4.10;;;0.70;99.90;;;;;;6247337;22;20069;-78
2023/03/28 03:11:11;;;;;;;18.52;3.50;;;0.10;99.90;;;;;;6274458;22;20015;-78
2023/03/28 03:13:37;;;;;;;19.30;4.28;;;0.10;99.90;;;;;;6222328;22;20011;-78
2023/03/28 03:16:04;;;;;;;19.58;3.80;;;0.10;99.90;;;;;;6247303;22;20497;-78
2023/03/28 03:18:29;;;;;;;21.67;4.55;;;0.10;99.90;;;;;;6221476;22;20079;-78
2023/03/28 03:20:55;;;;;;;23.42;4.40;;;0.10;99.90;;;;;;6247424;22;20039;-78
2023/03/28 03:23:21;;;;;;;27.00;4.78;;;0.00;99.90;;;;;;6274600;22;20326;-79
2023/03/28 03:25:50;;;;;;;19.63;4.15;;;0.00;99.90;;;;;;6247126;22;20007;-78
2023/03/28 03:28:17;;;;;;;17.85;3.67;;;0.00;99.90;;;;;;6247051;22;20327;-78
2023/03/28 03:30:43;;;;;;;17.45;3.47;;;0.10;99.90;;;;;;6247060;22;20000;-78
2023/03/28 03:33:09;;;;;;;18.45;3.72;;;0.00;99.90;;;;;;6274222;22;20380;-79
2023/03/28 03:35:36;;;;;;;17.63;3.63;;;0.00;99.90;;;;;;6221632;22;20011;-78
2023/03/28 03:38:02;;;;;;;16.10;4.18;;;0.00;99.90;;;;;;6274582;22;20008;-79
2023/03/28 03:40:28;;;;;;;15.93;3.70;;;0.00;99.90;;;;;;6221834;22;20004;-78
2023/03/28 03:42:54;;;;;;;20.15;4.10;;;-0.10;99.90;;;;;;6274378;22;20339;-79
2023/03/28 03:45:20;;;;;;;15.55;3.90;;;-0.10;99.90;;;;;;6247552;22;20091;-79
2023/03/28 03:47:49;;;;;;;20.80;3.40;;;-0.10;99.90;;;;;;6246847;22;20007;-78
2023/03/28 03:50:15;;;;;;;23.33;3.80;;;-0.10;99.90;;;;;;6221779;22;20004;-78
2023/03/28 03:52:40;;;;;;;18.80;3.80;;;-0.10;99.90;;;;;;6221855;22;20512;-78
2023/03/28 03:55:07;;;;;;;16.75;3.40;;;-0.20;99.90;;;;;;6247348;22;20011;-78
2023/03/28 03:57:32;;;;;;;18.23;3.75;;;-0.20;99.90;;;;;;6221589;22;20008;-78
2023/03/28 03:59:59;;;;;;;15.85;4.05;;;-0.20;99.90;;;;;;6222088;22;20477;-78
2023/03/28 04:02:26;;;;;;;20.35;4.07;;;-0.30;99.90;;;;;;6246651;22;20015;-79
2023/03/28 04:04:52;;;;;;;17.83;3.53;;;-0.30;99.90;;;;;;6247355;22;20050;-80
2023/03/28 04:07:18;;;;;;;10.98;2.95;;;-0.30;99.90;;;;;;6247075;22;20103;-78
2023/03/28 04:09:43;;;;;;;19.08;4.55;;;-0.30;99.90;;;;;;6274351;22;20428;-78
2023/03/28 04:12:10;;;;;;;24.40;4.20;;;-0.30;99.90;;;;;;6221667;22;20012;-78
2023/03/28 04:14:39;;;;;;;17.92;3.70;;;-0.30;99.90;;;;;;6246102;22;20008;-78
2023/03/28 04:17:05;;;;;;;19.40;3.70;;;-0.40;99.90;;;;;;6245901;22;20013;-78
2023/03/28 04:19:31;;;;;;;19.02;4.07;;;-0.40;99.90;;;;;;6221014;22;20058;-77
2023/03/28 04:21:58;;;;;;;13.80;4.18;;;-0.40;99.90;;;;;;6246606;22;20012;-78
2023/03/28 04:24:24;;;;;;;18.02;3.85;;;-0.50;99.90;;;;;;6221793;22;20324;-78
2023/03/28 04:26:54;;;;;;;14.05;3.42;;;-0.30;99.90;;;;;;6246929;22;20069;-79
2023/03/28 04:29:29;;;;;;;24.20;3.88;;;-0.50;99.90;;;;;;6247225;22;20047;-77
2023/03/28 04:31:58;;;;;;;20.05;4.00;;;-0.50;99.90;;;;;;6221448;22;20019;-78
2023/03/28 04:34:28;;;;;;;16.85;4.13;;;-0.40;99.90;;;;;;6223796;22;20012;-78
2023/03/28 04:36:56;;;;;;;21.95;3.95;;;-0.50;99.90;;;;;;6276544;22;20086;-78
2023/03/28 04:39:21;;;;;;;22.33;4.78;;;-0.50;99.90;;;;;;6249446;22;20008;-78
2023/03/28 04:41:47;;;;;;;14.65;3.17;;;-0.50;99.90;;;;;;6223463;22;20346;-77
2023/03/28 04:44:16;;;;;;;21.90;3.63;;;-0.50;99.90;;;;;;6249113;22;20015;-78
2023/03/28 04:46:45;;;;;;;20.20;3.83;;;-0.60;99.90;;;;;;6246276;22;20011;-78
2023/03/28 04:49:10;;;;;;;17.10;3.85;;;-0.50;99.90;;;;;;6248172;22;20014;-77
2023/03/28 04:51:39;;;;;;;17.13;4.00;;;-0.20;99.90;;;;;;6273081;22;20314;-77
2023/03/28 04:54:05;;;;;;;17.13;3.75;;;-0.50;99.90;;;;;;6246872;22;20015;-78
2023/03/28 04:56:30;;;;;;;14.70;3.78;;;-0.50;99.90;;;;;;6240164;22;20103;-78
2023/03/28 04:58:56;;;;;;;22.30;4.40;;;-0.50;99.90;;;;;;6221525;22;20528;-80
2023/03/28 05:01:24;;;;;;;12.30;3.50;;;-0.50;99.90;;;;;;6240943;22;20477;-80
2023/03/28 05:03:50;;;;;;;18.23;4.20;;;-0.50;99.90;;;;;;6219745;22;20061;-81
2023/03/28 05:06:20;;;;;;;17.30;3.80;;;-0.50;99.90;;;;;;6221120;22;20016;-79
2023/03/28 05:08:46;;;;;;;17.52;4.60;;;-0.50;99.90;;;;;;6270152;22;20015;-79
2023/03/28 05:11:11;;;;;;;22.27;4.65;;;-0.50;99.90;;;;;;6239346;22;20019;-84
2023/03/28 05:13:37;;;;;;;17.85;3.80;;;-0.50;99.90;;;;;;6247003;22;20107;-79
2023/03/28 05:16:03;;;;;;;14.25;4.07;;;-0.60;99.90;;;;;;6246423;22;20050;-79
2023/03/28 05:18:29;;;;;;;16.65;4.55;;;-0.60;99.90;;;;;;6247205;22;20355;-79
2023/03/28 05:20:54;;;;;;;19.63;4.25;;;-0.50;99.90;;;;;;6247634;22;20007;-78
2023/03/28 05:23:20;;;;;;;20.83;4.28;;;-0.50;99.90;;;;;;6274491;22;20022;-79
2023/03/28 05:26:04;;;;;;;22.75;4.10;;;-0.60;99.90;;;;;;6222258;22;20022;-79
2023/03/28 05:28:30;;;;;;;18.73;4.03;;;-0.50;99.90;;;;;;6274798;22;20130;-79
2023/03/28 05:30:56;;;;;;;25.55;4.57;;;-0.50;99.90;;;;;;6246664;22;20011;-79
2023/03/28 05:33:21;;;;;;;22.25;5.10;;;-0.50;99.90;;;;;;6245445;22;20019;-80
2023/03/28 05:35:50;;;;;;;15.90;4.88;;;-0.50;99.90;;;;;;6248327;22;20015;-79
2023/03/28 05:38:16;;;;;;;20.33;4.00;;;-0.50;99.90;;;;;;6225288;22;20012;-80
2023/03/28 05:40:45;;;;;;;14.38;3.90;;;-0.30;99.90;;;;;;6227750;22;20063;-80
2023/03/28 05:43:11;;;;;;;14.80;4.60;;;-0.50;99.90;;;;;;6251406;22;20064;-80
2023/03/28 05:45:36;;;;;;;20.35;5.03;;;-0.40;99.90;;;;;;6254421;22;20027;-80
2023/03/28 05:48:02;;;;;;;15.10;4.07;;;-0.40;99.90;;;;;;6254015;22;20504;-79
2023/03/28 05:50:28;;;;;;;14.82;4.85;;;-0.40;99.90;;;;;;6253877;22;20094;-79
2023/03/28 05:52:53;;;;;;;15.57;4.53;;;-0.30;99.90;;;;;;6250168;22;20011;-79
2023/03/28 05:55:19;;;;;;;19.42;5.00;;;-0.20;99.90;;;;;;6249201;22;20018;-81
2023/03/28 05:57:45;;;;;;;18.00;4.63;;;0.00;99.90;;;;;;6248603;22;20026;-80
2023/03/28 06:00:18;;;;;;;24.05;5.32;;;0.10;99.90;;;;;;6247825;22;20012;-79
2023/03/28 06:02:44;;;;;;;15.98;4.78;;;0.20;99.90;;;;;;6274874;22;20047;-79
2023/03/28 06:05:11;;;;;;;17.42;4.63;;;0.40;99.90;;;;;;6247732;22;20020;-80
2023/03/28 06:07:38;;;;;;;19.63;5.53;;;0.60;99.90;;;;;;6247810;22;20016;-80
2023/03/28 06:10:05;;;;;;;22.33;5.35;;;0.70;99.90;;;;;;6247113;22;20130;-81
2023/03/28 06:12:32;;;;;;;22.42;5.85;;;0.80;99.90;;;;;;6221831;22;20020;-80
2023/03/28 06:14:57;;;;;;;18.85;5.90;;;1.00;99.90;;;;;;6275069;22;20035;-81
2023/03/28 06:17:24;;;;;;;21.02;5.18;;;1.20;99.90;;;;;;6222129;22;20037;-80
2023/03/28 06:19:50;;;;;;;19.52;5.18;;;1.40;99.90;;;;;;6247730;22;20058;-81
2023/03/28 06:22:15;;;;;;;24.65;5.38;;;1.70;99.90;;;;;;6246910;22;20012;-80
2023/03/28 06:24:41;;;;;;;20.42;5.13;;;1.90;99.90;;;;;;6222270;22;20019;-81
2023/03/28 06:27:07;;;;;;;21.52;5.13;;;2.20;99.90;;;;;;6244272;22;20065;-81
2023/03/28 06:29:35;;;;;;;18.67;4.60;;;2.50;99.90;;;;;;6246433;22;20338;-80
2023/03/28 06:32:01;;;;;;;23.70;4.80;;;2.80;99.90;;;;;;6246117;22;20007;-81
2023/03/28 06:34:26;;;;;;;16.85;3.97;;;3.00;99.90;;;;;;6222287;22;20094;-81
2023/03/28 06:36:52;;;;;;;16.90;3.95;;;3.60;99.90;;;;;;6245926;22;20054;-81
2023/03/28 06:39:17;;;;;;;17.40;4.40;;;3.10;99.90;;;;;;6246254;22;20019;-82
2023/03/28 06:41:43;;;;;;;15.88;3.95;;;3.10;99.90;;;;;;6246027;22;20012;-81
2023/03/28 06:44:09;;;;;;;17.48;3.83;;;3.10;99.90;;;;;;6245753;22;20034;-81
2023/03/28 06:46:35;;;;;;;16.00;4.57;;;3.10;99.90;;;;;;6245580;22;20043;-81
2023/03/28 06:49:01;;;;;;;11.95;3.30;;;3.40;99.90;;;;;;6273155;22;20004;-82
2023/03/28 06:51:26;;;;;;;17.05;4.03;;;3.30;99.90;;;;;;6246200;22;20023;-82
2023/03/28 06:53:52;;;;;;;16.25;3.67;;;3.30;99.90;;;;;;6246490;22;20390;-81
2023/03/28 06:56:18;;;;;;;17.35;4.55;;;3.30;99.90;;;;;;6245296;22;20426;-81
2023/03/28 06:58:44;;;;;;;15.43;3.67;;;3.40;99.90;;;;;;6222609;22;20198;-82
2023/03/28 07:01:09;;;;;;;18.10;4.10;;;3.50;99.90;;;;;;6247592;22;20015;-80
2023/03/28 07:03:35;;;;;;;17.42;4.65;;;3.60;99.90;;;;;;6247877;22;20454;-79
2023/03/28 07:06:06;;;;;;;17.95;4.93;;;3.70;99.90;;;;;;6275139;22;20008;-79
2023/03/28 07:08:32;;;;;;;17.27;3.90;;;3.70;99.90;;;;;;6222535;22;20016;-80
2023/03/28 07:10:57;;;;;;;20.63;4.20;;;3.70;99.90;;;;;;6247020;22;20061;-79
2023/03/28 07:13:23;;;;;;;20.75;3.78;;;3.80;99.90;;;;;;6248162;22;20366;-80
2023/03/28 07:15:59;;;;;;;14.45;3.60;;;3.90;99.90;;;;;;6275313;22;20047;-79
2023/03/28 07:18:25;;;;;;;15.77;4.32;;;4.00;99.90;;;;;;6222325;22;20111;-80
2023/03/28 07:20:50;;;;;;;16.02;4.18;;;4.20;99.90;;;;;;6247482;22;20014;-80
2023/03/28 07:23:16;;;;;;;18.73;3.85;;;4.30;99.90;;;;;;6222282;22;20389;-79
2023/03/28 07:25:43;;;;;;;19.58;3.83;;;4.40;99.90;;;;;;6246839;22;20047;-79
2023/03/28 07:28:08;;;;;;;12.77;3.70;;;4.50;99.90;;;;;;6247415;22;20374;-80
2023/03/28 07:30:34;;;;;;;17.55;3.90;;;4.80;99.90;;;;;;6222183;22;20047;-80
2023/03/28 07:33:00;;;;;;;16.05;4.00;;;4.70;99.90;;;;;;6221911;22;20015;-80
2023/03/28 07:35:25;;;;;;;17.70;3.65;;;5.00;99.90;;;;;;6247295;22;20028;-80
2023/03/28 07:37:51;;;;;;;17.10;3.47;;;4.80;99.90;;;;;;6247151;22;20461;-79
2023/03/28 07:40:17;;;;;;;18.98;3.28;;;4.90;99.90;;;;;;6246795;22;20012;-80
2023/03/28 07:42:43;;;;;;;16.92;3.55;;;5.00;99.90;;;;;;6274425;22;20457;-80
2023/03/28 07:45:09;;;;;;;13.10;3.25;;;5.00;99.90;;;;;;6274527;22;20012;-80
2023/03/28 07:47:35;;;;;;;11.73;3.33;;;5.00;99.90;;;;;;6222247;22;20349;-80
2023/03/28 07:50:00;;;;;;;13.80;3.10;;;5.00;99.90;;;;;;6274385;22;20174;-79
2023/03/28 07:52:26;;;;;;;13.48;3.30;;;5.10;99.90;;;;;;6273981;22;20042;-79
2023/03/28 07:54:52;;;;;;;15.52;3.88;;;5.10;99.90;;;;;;6246571;22;20016;-79
2023/03/28 07:57:18;;;;;;;14.80;3.22;;;5.30;99.90;;;;;;6247255;22;20082;-80
2023/03/28 07:59:44;;;;;;;16.10;4.15;;;5.20;99.90;;;;;;6247153;22;20039;-79
2023/03/28 08:02:14;;;;;;;11.57;2.67;;;5.40;99.90;;;;;;6247042;22;20103;-79
2023/03/28 08:04:40;;;;;;;13.20;2.90;;;5.20;99.90;;;;;;6274237;22;20016;-80
2023/03/28 08:07:06;;;;;;;10.43;2.83;;;5.10;99.90;;;;;;6274473;22;20012;-78
2023/03/28 08:09:32;;;;;;;14.85;3.00;;;5.20;99.90;;;;;;6246834;22;20012;-79
2023/03/28 08:11:58;;;;;;;14.40;2.80;;;5.30;99.90;;;;;;6221719;22;20008;-80
2023/03/28 08:14:24;;;;;;;14.48;2.78;;;5.30;99.90;;;;;;6247564;22;20043;-80
2023/03/28 08:16:50;;;;;;;11.82;2.78;;;5.40;99.90;;;;;;6247339;22;20489;-80
2023/03/28 08:19:19;;;;;;;14.15;2.80;;;5.40;99.90;;;;;;6247574;22;20015;-80
2023/03/28 08:21:45;;;;;;;13.93;3.00;;;5.80;99.90;;;;;;6247564;22;20373;-80
2023/03/28 08:24:11;;;;;;;11.57;2.47;;;5.40;99.90;;;;;;6221481;22;20095;-80
2023/03/28 08:26:37;;;;;;;8.55;2.40;;;5.50;99.90;;;;;;6274728;22;20442;-80
2023/03/28 08:29:04;;;;;;;11.05;3.00;;;5.70;99.90;;;;;;6274543;22;20014;-80
2023/03/28 08:31:30;;;;;;;13.60;2.75;;;5.90;99.90;;;;;;6247247;22;20015;-80
2023/03/28 08:33:57;;;;;;;9.95;2.47;;;6.10;99.90;;;;;;6247939;22;20107;-80
2023/03/28 08:36:25;;;;;;;11.07;2.85;;;6.40;99.90;;;;;;6221637;22;20008;-80
2023/03/28 08:38:53;;;;;;;12.98;2.80;;;6.60;99.90;;;;;;6221113;22;20046;-80
2023/03/28 08:41:30;;;;;;;12.85;2.25;;;6.80;99.90;;;;;;6221417;22;20012;-80
2023/03/28 08:44:27;;;;;;;10.68;2.80;;;6.90;99.90;;;;;;6246957;22;20016;-80
2023/03/28 08:47:18;;;;;;;11.38;2.28;;;7.10;99.90;;;;;;6274691;22;20018;-80
2023/03/28 08:49:51;;;;;;;10.55;2.60;;;7.30;99.90;;;;;;6273250;22;20015;-80
2023/03/28 08:52:19;;;;;;;12.07;2.28;;;7.40;99.90;;;;;;6221125;22;20042;-80
2023/03/28 08:54:50;;;;;;;9.43;2.20;;;7.40;99.90;;;;;;6221685;22;20172;-80
2023/03/28 08:57:20;;;;;;;8.88;2.25;;;7.50;99.90;;;;;;6221556;22;20011;-80
2023/03/28 09:00:27;;;;;;;6.72;2.10;;;7.60;99.90;;;;;;6221779;22;20015;-80
2023/03/28 09:02:54;;;;;;;9.65;2.10;;;7.60;99.90;;;;;;6205797;22;20022;-80
2023/03/28 09:05:43;;;;;;;10.90;2.40;;;7.70;99.90;;;;;;6274170;22;20061;-80
2023/03/28 09:08:31;;;;;;;8.57;2.40;;;7.70;99.90;;;;;;6246350;22;20008;-80
2023/03/28 09:11:11;;;;;;;8.27;2.10;;;7.70;99.90;;;;;;6247300;22;20118;-80
2023/03/28 09:13:45;;;;;;;8.63;2.20;;;7.80;99.90;;;;;;6246986;22;20026;-79
2023/03/28 09:16:17;;;;;;;9.15;1.70;;;7.90;99.90;;;;;;6246926;22;20091;-80
2023/03/28 09:19:14;;;;;;;7.15;2.13;;;8.00;99.90;;;;;;6222898;22;20431;-79
2023/03/28 09:22:00;;;;;;;10.55;2.67;;;8.20;99.90;;;;;;6248217;22;20019;-80
2023/03/28 09:24:49;;;;;;;7.45;2.13;;;8.20;99.90;;;;;;6223342;22;20058;-80
2023/03/28 09:27:40;;;;;;;7.63;1.83;;;8.30;99.90;;;;;;6224078;22;20069;-80
2023/03/28 09:30:25;;;;;;;8.82;2.10;;;8.60;99.90;;;;;;6251618;22;20058;-79
2023/03/28 09:32:54;;;;;;;8.25;2.00;;;8.60;99.90;;;;;;6253379;22;20062;-79
2023/03/28 09:35:23;;;;;;;6.85;2.05;;;8.70;99.90;;;;;;6226930;22;20064;-80
2023/03/28 09:38:13;;;;;;;8.25;1.88;;;8.70;99.90;;;;;;6278215;22;20094;-80
2023/03/28 09:40:45;;;;;;;8.32;2.88;;;8.80;99.90;;;;;;6275797;22;20015;-80
2023/03/28 09:43:19;;;;;;;8.20;2.10;;;8.80;99.90;;;;;;6248194;22;20503;-79
2023/03/28 09:46:02;;;;;;;6.40;1.75;;;8.70;99.90;;;;;;6248636;22;20047;-79
2023/03/28 09:48:35;;;;;;;9.50;1.83;;;8.80;99.90;;;;;;6275873;22;20316;-80
2023/03/28 09:51:04;;;;;;;6.45;1.63;;;8.90;99.90;;;;;;6222383;22;20008;-80
2023/03/28 09:53:35;;;;;;;5.25;1.33;;;9.00;99.90;;;;;;6247976;22;20012;-79
2023/03/28 09:56:18;;;;;;;8.00;2.13;;;8.90;99.90;;;;;;6248192;22;20008;-80
2023/03/28 09:58:49;;;;;;;5.85;1.70;;;9.00;99.90;;;;;;6223166;22;20007;-80
2023/03/28 10:01:35;;;;;;;7.18;1.83;;;9.30;99.90;;;;;;6248070;22;20058;-80
2023/03/28 10:04:07;;;;;;;6.13;2.15;;;9.20;99.90;;;;;;6248129;22;20012;-80
2023/03/28 10:06:33;;;;;;;9.35;2.13;;;9.30;99.90;;;;;;6222725;22;20019;-80
2023/03/28 10:09:14;;;;;;;7.38;2.03;;;9.60;99.90;;;;;;6248660;22;20379;-80
2023/03/28 10:11:56;;;;;;;6.35;2.22;;;9.60;99.90;;;;;;6248019;22;20311;-80
2023/03/28 10:14:29;;;;;;;8.77;2.10;;;9.50;99.90;;;;;;6222630;22;20023;-79
2023/03/28 10:16:56;;;;;;;6.60;1.90;;;9.50;99.90;;;;;;6222549;22;20023;-80
2023/03/28 10:19:32;;;;;;;7.78;2.50;;;9.40;99.90;;;;;;6247620;22;20050;-79
2023/03/28 10:22:14;;;;;;;4.88;1.60;;;9.60;99.90;;;;;;6248006;22;20012;-80
2023/03/28 10:24:40;;;;;;;8.32;2.20;;;9.90;99.90;;;;;;6274658;22;20012;-79
2023/03/28 10:27:31;;;;;;;7.68;2.20;;;9.80;99.90;;;;;;6247974;22;20087;-80
2023/03/28 10:30:06;;;;;;;6.55;1.70;;;9.70;99.90;;;;;;6246983;22;20091;-79
2023/03/28 10:32:32;;;;;;;6.68;1.92;;;9.70;99.90;;;;;;6248047;22;20058;-80
2023/03/28 10:35:02;;;;;;;5.53;1.92;;;9.70;99.90;;;;;;6221941;22;20015;-79
2023/03/28 10:37:31;;;;;;;7.43;1.83;;;9.50;99.90;;;;;;6247674;22;20414;-79
2023/03/28 10:40:06;;;;;;;5.15;1.88;;;9.50;99.90;;;;;;6222026;22;20012;-80
2023/03/28 10:42:44;;;;;;;9.07;1.65;;;9.40;99.90;;;;;;6247650;22;20019;-79
2023/03/28 10:45:23;;;;;;;6.15;2.00;;;9.20;99.90;;;;;;6222242;22;20357;-80
2023/03/28 10:47:51;;;;;;;6.97;1.80;;;9.10;99.90;;;;;;6274586;22;20047;-79
2023/03/28 10:50:37;;;;;;;6.25;2.30;;;9.00;99.90;;;;;;6274848;22;20315;-80
2023/03/28 10:53:18;;;;;;;9.88;2.55;;;8.90;99.90;;;;;;6222634;22;20039;-80
2023/03/28 10:56:01;;;;;;;7.88;2.40;;;8.90;99.90;;;;;;6247564;22;20012;-80
2023/03/28 10:58:38;;;;;;;10.20;2.33;;;9.00;99.90;;;;;;6248128;22;20011;-80
2023/03/28 11:01:26;;;;;;;6.72;2.03;;;8.90;99.90;;;;;;6247939;22;20422;-80
2023/03/28 11:04:10;;;;;;;8.43;2.38;;;9.30;99.90;;;;;;6221416;22;20458;-79
2023/03/28 11:06:56;;;;;;;6.35;1.80;;;9.50;99.90;;;;;;6247355;22;20019;-80
2023/03/28 11:09:49;;;;;;;5.45;2.05;;;9.60;99.90;;;;;;6221276;22;20082;-80
2023/03/28 11:12:39;;;;;;;8.05;2.25;;;9.80;99.90;;;;;;6274899;22;20008;-80
2023/03/28 11:15:14;;;;;;;6.45;2.00;;;9.80;99.90;;;;;;6222058;22;20458;-80
2023/03/28 11:17:52;;;;;;;4.53;1.75;;;9.80;99.90;;;;;;6246682;22;20351;-80
2023/03/28 11:20:27;;;;;;;5.30;1.88;;;9.80;99.60;;;;;;6221854;22;20351;-80
2023/03/28 11:23:27;;;;;;;6.63;2.17;;;9.80;99.90;;;;;;6247340;22;20319;-80
2023/03/28 11:26:38;;;;;;;8.80;2.30;;;9.90;99.90;;;;;;6274887;22;20030;-80
2023/03/28 11:29:20;;;;;;;6.75;2.00;;;10.00;99.90;;;;;;6261222;22;20102;-79
2023/03/28 11:31:58;;;;;;;5.22;1.95;;;10.20;99.90;;;;;;6274781;22;20576;-79
2023/03/28 11:34:46;;;;;;;7.30;2.03;;;10.10;99.90;;;;;;6248318;22;20369;-80
2023/03/28 11:37:21;;;;;;;5.13;2.05;;;10.20;99.90;;;;;;6222142;22;20078;-80
2023/03/28 11:39:57;;;;;;;5.82;1.95;;;10.40;99.90;;;;;;6274530;22;20338;-80
2023/03/28 11:42:47;;;;;;;4.95;1.90;;;10.50;99.80;;;;;;6274374;22;20008;-80
2023/03/28 11:45:45;;;;;;;6.95;2.22;;;10.50;99.30;;;;;;6274899;22;20078;-80
2023/03/28 11:48:40;;;;;;;5.07;1.83;;;10.70;99.90;;;;;;6247442;22;20161;-80
2023/03/28 11:51:17;;;;;;;6.07;2.35;;;10.90;99.60;;;;;;6222039;22;20357;-80
2023/03/28 11:53:57;;;;;;;6.13;2.42;;;10.90;99.90;;;;;;6247527;22;20280;-80
2023/03/28 11:56:47;;;;;;;7.00;2.05;;;11.00;99.80;;;;;;6221744;22;20065;-80
2023/03/28 11:59:25;;;;;;;5.95;2.22;;;11.20;99.20;;;;;;6221873;22;20014;-80
2023/03/28 12:02:02;;;;;;;5.10;2.00;;;11.10;98.70;;;;;;6246919;22;20030;-80
2023/03/28 12:04:38;;;;;;;5.40;2.30;;;11.20;99.90;;;;;;6221528;22;20086;-80
2023/03/28 12:07:10;;;;;;;7.05;2.40;;;11.00;98.50;;;;;;6247532;22;20347;-80
2023/03/28 12:10:04;;;;;;;8.65;2.85;;;10.90;98.20;;;;;;6246987;22;20501;-80
2023/03/28 12:12:54;;;;;;;8.73;2.35;;;11.00;99.00;;;;;;6247637;22;20015;-80
2023/03/28 12:15:26;;;;;;;6.40;2.72;;;11.20;99.90;;;;;;6246409;22;20043;-79
2023/03/28 12:18:03;;;;;;;8.48;2.30;;;11.30;99.30;;;;;;6220879;22;20012;-79
2023/03/28 12:20:44;;;;;;;7.32;2.72;;;11.30;99.90;;;;;;6247308;22;20091;-79
2023/03/28 12:23:30;;;;;;;5.22;2.33;;;11.40;99.90;;;;;;6247446;22;20087;-80
2023/03/28 12:26:09;;;;;;;7.28;2.55;;;11.40;99.80;;;;;;6247822;22;20004;-80
2023/03/28 12:28:42;;;;;;;10.18;2.67;;;11.20;99.90;;;;;;6222271;22;20014;-79
2023/03/28 12:31:20;;;;;;;5.43;2.50;;;11.30;99.90;;;;;;6248397;22;20086;-80
2023/03/28 12:34:02;;;;;;;8.43;3.10;;;11.40;99.80;;;;;;6250128;22;20012;-79
2023/03/28 12:37:00;;;;;;;7.35;2.50;;;11.40;98.80;;;;;;6250701;22;20023;-79
2023/03/28 12:39:45;;;;;;;8.02;2.75;;;11.20;97.30;;;;;;6249338;22;20016;-80
2023/03/28 12:42:15;;;;;;;6.15;2.53;;;11.30;98.60;;;;;;6247444;22;20019;-80
2023/03/28 12:44:58;;;;;;;7.18;2.67;;;11.00;98.20;;;;;;6221631;22;20012;-80
2023/03/28 12:47:28;;;;;;;7.78;2.75;;;11.00;99.30;;;;;;6247501;22;20100;-80
2023/03/28 12:49:58;;;;;;;7.65;2.83;;;11.10;99.90;;;;;;6222009;22;20086;-80
2023/03/28 12:52:31;;;;;;;5.90;2.20;;;11.30;98.60;;;;;;6247175;22;20442;-80
2023/03/28 12:54:59;;;;;;;6.32;2.88;;;11.30;99.90;;;;;;6276344;22;20010;-80
2023/03/28 12:57:44;;;;;;;6.25;2.63;;;11.30;98.00;;;;;;6276467;22;20091;-80
2023/03/28 13:00:46;;;;;;;5.60;2.40;;;11.50;98.20;;;;;;6222735;22;20424;-80
2023/03/28 13:03:52;;;;;;;7.85;2.53;;;11.10;98.30;;;;;;6248317;22;20051;-80
2023/03/28 13:06:25;;;;;;;8.75;2.70;;;11.20;98.60;;;;;;6102918;23;20021;-80
2023/03/28 13:09:34;;;;;;;6.57;2.40;;;11.10;99.30;;;;;;6127575;23;20021;-80
2023/03/28 13:12:38;;;;;;;7.55;2.42;;;11.00;99.00;;;;;;6152325;23;20392;-80
2023/03/28 13:15:30;;;;;;;8.57;2.88;;;11.00;97.40;;;;;;6127437;23;20024;-80
2023/03/28 13:18:19;;;;;;;7.75;2.85;;;11.20;98.30;;;;;;6103319;23;20014;-79
2023/03/28 13:20:50;;;;;;;6.60;2.20;;;11.20;99.90;;;;;;6152189;23;20013;-80